Time;durP1;ratioP1;P1;durP2;ratioP2;P2;SDS_P1;SDS_P2;PMS_P1;PMS_P2;Temp;Humidity;BMP_temperature;BMP_pressure;BME280_temperature;BME280_humidity;BME280_pressure;Samples;Min_cycle;Max_cycle;Signal;HPM_P1;HPM_P2
2021/05/30 00:00:49;;;;;;;5.15;3.83;;;;;;;13.47;67.22;95131.78;5065425;28;20142;-74
2021/05/30 00:03:17;;;;;;;6.63;3.38;;;;;;;13.42;66.77;95140.38;5068093;28;20044;-75
2021/05/30 00:05:45;;;;;;;4.03;3.63;;;;;;;13.35;66.48;95143.16;5067357;28;20478;-75
2021/05/30 00:08:14;;;;;;;9.38;3.35;;;;;;;13.38;66.97;95139.28;5067639;28;20044;-74
2021/05/30 00:10:42;;;;;;;5.00;3.33;;;;;;;13.43;67.00;95131.50;5067537;28;20555;-75
2021/05/30 00:13:09;;;;;;;14.32;4.13;;;;;;;13.41;66.94;95125.72;5067411;28;20071;-75
2021/05/30 00:15:36;;;;;;;11.13;4.03;;;;;;;13.33;66.98;95115.69;5066098;28;20102;-75
2021/05/30 00:18:03;;;;;;;5.82;4.13;;;;;;;13.30;67.04;95121.34;5068979;28;20055;-73
2021/05/30 00:20:29;;;;;;;6.75;3.78;;;;;;;13.26;67.21;95130.72;5066981;28;20497;-75
2021/05/30 00:22:56;;;;;;;6.28;3.33;;;;;;;13.37;66.83;95132.47;5048918;28;20057;-75
2021/05/30 00:25:23;;;;;;;5.32;3.72;;;;;;;13.25;67.71;95118.66;5066825;28;20405;-74
2021/05/30 00:27:50;;;;;;;4.15;3.47;;;;;;;13.15;67.76;95114.09;5068607;28;20072;-74
2021/05/30 00:30:17;;;;;;;4.07;3.42;;;;;;;13.16;68.02;95134.78;5066751;28;20047;-74
2021/05/30 00:32:44;;;;;;;4.32;3.83;;;;;;;13.06;68.27;95126.75;5065751;28;20055;-74
2021/05/30 00:35:11;;;;;;;4.95;3.78;;;;;;;13.01;69.00;95124.06;5068944;28;20040;-74
2021/05/30 00:37:37;;;;;;;6.80;3.97;;;;;;;13.06;68.83;95125.97;5067959;28;20054;-75
2021/05/30 00:40:05;;;;;;;4.50;3.75;;;;;;;12.99;69.13;95126.91;5066149;28;20047;-75
2021/05/30 00:42:32;;;;;;;4.38;3.97;;;;;;;13.01;68.97;95129.28;5068472;28;20048;-75
2021/05/30 00:44:59;;;;;;;5.07;4.57;;;;;;;13.04;68.89;95125.44;5068483;28;20041;-75
2021/05/30 00:47:26;;;;;;;5.22;4.25;;;;;;;13.01;69.30;95129.28;5066770;28;20036;-75
2021/05/30 00:49:52;;;;;;;5.38;4.40;;;;;;;12.92;69.83;95130.72;5066885;28;20068;-74
2021/05/30 00:52:19;;;;;;;5.70;4.05;;;;;;;12.83;69.76;95127.72;5066276;28;20051;-75
2021/05/30 00:54:46;;;;;;;6.50;3.90;;;;;;;12.79;69.90;95122.16;5066202;28;20040;-75
2021/05/30 00:57:13;;;;;;;5.60;4.00;;;;;;;12.78;69.85;95125.81;5066450;28;20387;-74
2021/05/30 00:59:41;;;;;;;6.88;3.85;;;;;;;12.75;70.12;95135.97;5065044;28;20044;-74
2021/05/30 01:02:08;;;;;;;4.78;4.30;;;;;;;12.64;69.97;95135.00;5065981;28;20040;-75
2021/05/30 01:04:35;;;;;;;8.48;4.35;;;;;;;12.62;70.30;95131.81;5069384;28;20044;-75
2021/05/30 01:07:02;;;;;;;6.93;4.35;;;;;;;12.50;70.70;95118.03;5068593;28;20097;-75
2021/05/30 01:09:31;;;;;;;4.55;4.15;;;;;;;12.46;71.17;95135.19;5066343;28;20422;-75
2021/05/30 01:11:58;;;;;;;5.90;4.50;;;;;;;12.35;71.58;95129.81;5066182;28;20094;-75
2021/05/30 01:14:24;;;;;;;5.18;4.70;;;;;;;12.36;72.13;95127.97;5064978;28;20048;-75
2021/05/30 01:16:51;;;;;;;4.97;4.38;;;;;;;12.35;72.11;95127.19;5064964;28;20048;-75
2021/05/30 01:19:20;;;;;;;6.13;4.60;;;;;;;12.22;72.52;95130.84;5066214;28;20040;-74
2021/05/30 01:21:47;;;;;;;5.03;4.43;;;;;;;12.21;72.89;95133.72;5066479;28;20055;-75
2021/05/30 01:24:16;;;;;;;4.70;4.10;;;;;;;12.22;72.94;95135.28;5067657;28;20043;-74
2021/05/30 01:26:44;;;;;;;6.80;5.07;;;;;;;12.22;73.53;95140.53;5065827;28;20036;-74
2021/05/30 01:29:11;;;;;;;7.90;4.32;;;;;;;12.19;73.96;95138.38;5067500;28;20040;-75
2021/05/30 01:31:38;;;;;;;6.70;5.15;;;;;;;12.13;74.00;95134.09;5066928;28;20476;-74
2021/05/30 01:34:05;;;;;;;7.97;4.80;;;;;;;12.12;74.16;95140.31;5065008;28;20040;-74
2021/05/30 01:36:32;;;;;;;5.35;4.85;;;;;;;12.08;74.66;95144.44;5064252;28;20452;-74
2021/05/30 01:38:59;;;;;;;8.05;4.93;;;;;;;11.93;74.57;95135.28;5066420;28;20048;-74
2021/05/30 01:41:26;;;;;;;5.30;4.50;;;;;;;11.97;75.39;95146.84;5065750;28;20533;-75
2021/05/30 01:43:53;;;;;;;5.80;5.20;;;;;;;11.98;75.18;95145.81;5065730;28;20402;-75
2021/05/30 01:46:19;;;;;;;6.50;5.47;;;;;;;11.98;75.13;95143.22;5065782;28;20042;-74
2021/05/30 01:48:46;;;;;;;5.55;4.70;;;;;;;11.86;75.59;95134.59;5065461;28;20127;-75
2021/05/30 01:51:13;;;;;;;11.25;5.53;;;;;;;11.90;75.44;95127.91;5065187;28;20648;-75
2021/05/30 01:54:00;;;;;;;6.93;5.18;;;;;;;11.88;75.86;95144.78;5064851;28;20127;-75
2021/05/30 01:59:15;;;;;;;6.60;5.90;;;;;;;11.91;75.39;95150.38;5046367;28;20040;-75
2021/05/30 02:01:42;;;;;;;5.50;4.50;;;;;;;11.90;75.56;95146.16;5064853;28;20468;-75
2021/05/30 02:04:12;;;;;;;5.63;4.95;;;;;;;11.86;75.76;95150.25;5066597;28;20044;-75
2021/05/30 02:06:41;;;;;;;7.70;5.28;;;;;;;11.86;75.91;95147.63;5065146;28;20823;-75
2021/05/30 02:09:11;;;;;;;7.07;4.95;;;;;;;11.81;76.43;95137.91;5065585;28;20051;-75
2021/05/30 02:11:39;;;;;;;7.03;5.43;;;;;;;11.79;76.81;95128.69;5065480;28;20473;-75
2021/05/30 02:14:06;;;;;;;10.30;5.10;;;;;;;11.85;77.26;95148.69;5066515;28;20048;-75
2021/05/30 02:16:36;;;;;;;5.82;5.20;;;;;;;11.81;76.95;95148.34;5046188;28;20049;-75
2021/05/30 02:19:03;;;;;;;5.78;4.88;;;;;;;11.82;76.69;95149.13;5046580;28;20051;-75
2021/05/30 02:21:42;;;;;;;7.60;5.43;;;;;;;11.83;76.80;95145.50;5045160;28;20037;-75
2021/05/30 02:24:11;;;;;;;9.98;5.50;;;;;;;11.82;76.66;95146.50;5044648;28;20045;-75
2021/05/30 02:26:38;;;;;;;14.52;6.05;;;;;;;11.85;76.84;95149.47;5045797;28;20037;-75
2021/05/30 02:29:07;;;;;;;8.27;5.65;;;;;;;11.87;77.57;95141.41;5046049;28;20094;-75
2021/05/30 02:31:34;;;;;;;9.65;6.53;;;;;;;11.86;78.15;95142.41;5044630;28;20048;-74
2021/05/30 02:34:01;;;;;;;13.75;5.88;;;;;;;11.81;78.34;95139.69;5043352;28;20133;-75
2021/05/30 02:36:28;;;;;;;9.23;6.07;;;;;;;11.86;77.80;95140.59;5044937;28;20037;-75
2021/05/30 02:38:55;;;;;;;8.15;5.68;;;;;;;11.85;78.65;95138.22;5045004;28;20143;-73
2021/05/30 02:41:23;;;;;;;9.10;5.90;;;;;;;11.73;79.48;95140.06;5045046;28;20033;-74
2021/05/30 02:43:50;;;;;;;7.03;5.38;;;;;;;11.78;79.81;95148.00;5045234;28;20045;-74
2021/05/30 02:46:16;;;;;;;8.15;6.03;;;;;;;11.64;79.77;95137.81;5044733;28;20676;-74
2021/05/30 02:48:44;;;;;;;8.27;5.85;;;;;;;11.59;80.61;95140.31;5043861;28;20124;-75
2021/05/30 02:51:11;;;;;;;6.70;5.30;;;;;;;11.67;80.17;95150.41;5047031;28;20079;-75
2021/05/30 02:53:38;;;;;;;7.65;6.15;;;;;;;11.71;79.66;95147.34;5044760;28;20049;-74
2021/05/30 02:56:04;;;;;;;10.25;5.90;;;;;;;11.76;79.11;95144.84;5044056;28;20036;-77
2021/05/30 02:58:31;;;;;;;12.10;5.97;;;;;;;11.66;79.46;95146.19;5045369;28;20049;-74
2021/05/30 03:00:58;;;;;;;10.15;5.95;;;;;;;11.79;80.01;95150.38;5043738;28;20674;-74
2021/05/30 03:03:25;;;;;;;9.60;6.18;;;;;;;11.84;80.03;95147.06;5044986;28;20502;-74
2021/05/30 03:05:52;;;;;;;9.85;5.05;;;;;;;11.78;78.27;95153.22;5044443;28;20047;-74
2021/05/30 03:08:19;;;;;;;7.80;5.50;;;;;;;11.70;78.17;95140.53;5046207;28;20103;-74
2021/05/30 03:10:46;;;;;;;8.90;6.65;;;;;;;11.72;77.59;95133.25;5044287;28;20049;-74
2021/05/30 03:13:13;;;;;;;5.57;4.88;;;;;;;11.67;78.49;95137.34;5044699;28;20055;-74
2021/05/30 03:15:40;;;;;;;9.15;5.32;;;;;;;11.67;78.52;95142.56;5043634;28;20510;-74
2021/05/30 03:18:07;;;;;;;5.63;4.90;;;;;;;11.70;78.07;95145.75;5043032;28;20507;-75
2021/05/30 03:20:34;;;;;;;9.13;5.13;;;;;;;11.62;77.71;95139.84;5043917;28;20515;-74
2021/05/30 03:23:01;;;;;;;5.85;5.25;;;;;;;11.63;77.38;95149.28;5043805;28;20051;-74
2021/05/30 03:25:28;;;;;;;6.03;5.43;;;;;;;11.57;78.18;95137.13;5043214;28;20044;-74
2021/05/30 03:27:56;;;;;;;6.05;5.13;;;;;;;11.56;78.45;95140.78;5044726;28;20142;-75
2021/05/30 03:30:22;;;;;;;5.53;5.03;;;;;;;11.63;78.60;95141.44;5045526;28;20284;-75
2021/05/30 03:32:49;;;;;;;5.97;5.00;;;;;;;11.58;78.50;95143.94;5043023;28;20494;-75
2021/05/30 03:35:16;;;;;;;5.90;5.35;;;;;;;11.57;78.25;95144.97;5044446;28;20069;-76
2021/05/30 03:37:43;;;;;;;7.47;5.45;;;;;;;11.59;78.26;95140.31;5048505;28;20041;-77
2021/05/30 03:40:32;;;;;;;8.73;5.10;;;;;;;11.58;78.98;95138.72;5048893;28;20041;-76
2021/05/30 03:42:59;;;;;;;10.80;5.65;;;;;;;11.55;78.87;95141.78;5047961;28;20140;-76
2021/05/30 03:45:26;;;;;;;6.18;5.32;;;;;;;11.57;78.86;95146.78;5048286;28;20037;-77
2021/05/30 03:47:53;;;;;;;6.32;5.32;;;;;;;11.58;78.20;95132.72;5044958;28;20076;-77
2021/05/30 03:50:20;;;;;;;6.55;5.22;;;;;;;11.66;78.57;95146.19;5047696;28;20040;-77
2021/05/30 03:52:47;;;;;;;8.15;5.13;;;;;;;11.73;78.20;95145.28;5047963;28;20450;-76
2021/05/30 03:55:15;;;;;;;6.03;5.07;;;;;;;11.65;78.31;95122.97;5048658;28;20132;-77
2021/05/30 03:57:42;;;;;;;6.32;5.57;;;;;;;11.79;78.08;95139.13;5048177;28;20057;-77
2021/05/30 04:00:12;;;;;;;13.73;4.97;;;;;;;11.82;76.84;95143.91;5047917;28;20053;-77
2021/05/30 04:02:39;;;;;;;5.50;4.93;;;;;;;11.86;76.83;95150.25;5047046;28;20045;-77
2021/05/30 04:05:06;;;;;;;7.03;4.93;;;;;;;11.90;76.19;95143.56;5046830;28;20049;-76
2021/05/30 04:07:33;;;;;;;5.88;5.07;;;;;;;12.00;76.30;95141.16;5045528;28;20048;-77
2021/05/30 04:10:03;;;;;;;7.10;5.03;;;;;;;11.99;75.99;95129.16;5046530;28;20402;-77
2021/05/30 04:12:30;;;;;;;6.78;5.35;;;;;;;12.16;75.86;95144.06;5047807;28;20038;-75
2021/05/30 04:14:57;;;;;;;10.13;6.50;;;;;;;12.22;74.86;95143.13;5048497;28;20439;-77
2021/05/30 04:17:24;;;;;;;5.70;4.75;;;;;;;12.20;74.77;95150.41;5068061;28;20193;-76
2021/05/30 04:19:51;;;;;;;6.15;5.38;;;;;;;12.16;75.28;95154.50;5067134;28;20064;-74
2021/05/30 04:22:18;;;;;;;7.53;5.38;;;;;;;12.19;75.69;95156.63;5066317;28;20409;-75
2021/05/30 04:24:45;;;;;;;8.07;5.30;;;;;;;12.30;76.66;95150.59;5066246;28;20051;-76
2021/05/30 04:27:12;;;;;;;6.22;5.38;;;;;;;12.33;76.60;95155.34;5067311;28;20559;-75
2021/05/30 04:29:39;;;;;;;10.10;5.18;;;;;;;12.31;76.40;95157.41;5049006;28;20045;-76
2021/05/30 04:32:06;;;;;;;8.02;5.38;;;;;;;12.28;76.64;95152.66;5047779;28;20559;-75
2021/05/30 04:34:33;;;;;;;7.65;5.25;;;;;;;12.27;77.64;95148.44;5064630;28;20468;-75
2021/05/30 04:37:00;;;;;;;9.50;5.75;;;;;;;12.23;78.52;95148.13;5065733;28;20040;-76
2021/05/30 04:39:30;;;;;;;9.00;5.28;;;;;;;12.30;77.90;95150.59;5068220;28;20044;-76
2021/05/30 04:41:58;;;;;;;6.50;5.10;;;;;;;12.42;77.41;95156.56;5070687;28;20040;-76
2021/05/30 04:44:26;;;;;;;5.82;5.13;;;;;;;12.50;76.70;95149.38;5066851;28;20044;-76
2021/05/30 04:46:53;;;;;;;5.95;5.35;;;;;;;12.52;76.17;95152.56;5065766;28;20037;-75
2021/05/30 04:49:19;;;;;;;5.28;4.78;;;;;;;12.50;75.33;95150.16;5066316;28;20513;-75
2021/05/30 04:51:46;;;;;;;7.90;5.10;;;;;;;12.55;75.62;95146.84;5048849;28;20037;-75
2021/05/30 04:54:13;;;;;;;10.23;5.38;;;;;;;12.62;75.49;95143.06;5069091;28;20498;-75
2021/05/30 04:56:40;;;;;;;4.97;4.47;;;;;;;12.71;75.96;95140.88;5066192;28;20048;-76
2021/05/30 04:59:06;;;;;;;6.03;5.25;;;;;;;12.87;75.87;95148.94;5066977;28;20028;-76
2021/05/30 05:01:33;;;;;;;6.22;4.70;;;;;;;12.96;75.87;95142.28;5066832;28;20052;-76
2021/05/30 05:04:00;;;;;;;8.32;5.40;;;;;;;13.00;74.08;95132.97;5049625;28;20058;-75
2021/05/30 05:06:27;;;;;;;4.85;4.13;;;;;;;13.15;73.97;95141.03;5063452;28;20041;-75
2021/05/30 05:08:54;;;;;;;7.20;4.95;;;;;;;13.31;73.30;95143.91;5062615;28;20112;-75
2021/05/30 05:11:21;;;;;;;5.20;4.60;;;;;;;13.35;72.00;95142.38;5065506;28;20036;-75
2021/05/30 05:13:48;;;;;;;5.15;4.68;;;;;;;13.27;73.01;95133.09;5066728;28;20072;-76
2021/05/30 05:16:14;;;;;;;5.90;4.93;;;;;;;13.39;72.13;95148.72;5047151;28;20433;-74
2021/05/30 05:18:41;;;;;;;4.45;3.78;;;;;;;13.50;71.44;95142.56;5065880;28;20414;-76
2021/05/30 05:21:08;;;;;;;9.02;4.05;;;;;;;13.50;71.00;95126.88;5067736;28;20517;-75
2021/05/30 05:23:35;;;;;;;6.30;3.78;;;;;;;13.61;69.45;95138.28;5067814;28;20052;-74
2021/05/30 05:26:04;;;;;;;5.68;4.18;;;;;;;13.68;69.27;95143.34;5049743;28;20532;-75
2021/05/30 05:28:32;;;;;;;5.03;4.10;;;;;;;13.67;70.00;95142.56;5067462;28;20136;-76
2021/05/30 05:31:00;;;;;;;6.95;3.22;;;;;;;13.72;69.39;95147.03;5065454;28;20525;-76
2021/05/30 05:33:27;;;;;;;5.43;4.05;;;;;;;13.77;70.99;95142.69;5066245;28;20497;-76
2021/05/30 05:35:54;;;;;;;7.20;4.10;;;;;;;13.81;70.02;95148.22;5065843;28;20071;-75
2021/05/30 05:38:21;;;;;;;12.60;5.15;;;;;;;13.86;69.16;95145.66;5063964;28;20043;-75
2021/05/30 05:40:48;;;;;;;6.45;4.45;;;;;;;13.82;69.33;95149.81;5063903;28;20430;-75
2021/05/30 05:43:14;;;;;;;8.90;4.25;;;;;;;13.80;69.31;95151.88;5065146;28;20037;-76
2021/05/30 05:45:41;;;;;;;11.80;5.22;;;;;;;13.72;69.61;95144.44;5047355;28;20040;-75
2021/05/30 05:48:11;;;;;;;15.88;4.28;;;;;;;13.63;69.30;95145.88;5047649;28;20130;-75
2021/05/30 05:50:38;;;;;;;27.70;5.00;;;;;;;13.65;69.89;95149.84;5064780;28;20055;-75
2021/05/30 05:53:05;;;;;;;10.98;3.83;;;;;;;13.64;69.86;95157.94;5047082;28;20045;-75
2021/05/30 05:55:33;;;;;;;13.10;4.38;;;;;;;13.62;69.10;95154.78;5065217;28;20430;-75
2021/05/30 05:58:01;;;;;;;17.30;4.22;;;;;;;13.77;70.29;95157.59;5065389;28;21691;-76
2021/05/30 06:00:30;;;;;;;9.77;4.25;;;;;;;13.76;69.64;95150.78;5062293;28;20044;-75
2021/05/30 06:02:57;;;;;;;9.77;4.00;;;;;;;13.75;70.20;95159.66;5064510;28;20532;-75
2021/05/30 06:05:25;;;;;;;12.27;4.90;;;;;;;13.81;70.23;95163.94;5064327;28;20426;-75
2021/05/30 06:07:55;;;;;;;5.60;4.40;;;;;;;13.95;69.61;95157.31;5046954;28;20045;-75
2021/05/30 06:10:25;;;;;;;8.35;3.40;;;;;;;13.99;69.53;95152.38;5063328;28;20052;-75
2021/05/30 06:12:53;;;;;;;9.57;4.18;;;;;;;14.02;70.03;95144.00;5045691;28;20054;-75
2021/05/30 06:15:21;;;;;;;5.22;4.30;;;;;;;14.24;69.05;95162.34;5064419;28;20052;-75
2021/05/30 06:18:32;;;;;;;5.18;4.28;;;;;;;14.36;70.55;95153.56;5065367;28;20051;-75
2021/05/30 06:20:40;;;;;;;5.68;4.05;;;;;;;14.48;68.22;95151.59;5057332;28;20544;-75
2021/05/30 06:23:07;;;;;;;11.05;4.38;;;;;;;14.64;67.50;95163.81;5064635;28;20047;-75
2021/05/30 06:25:34;;;;;;;8.88;3.92;;;;;;;14.68;66.37;95162.28;5065090;28;20044;-75
2021/05/30 06:28:02;;;;;;;8.18;3.38;;;;;;;14.78;66.64;95166.03;5065294;28;20032;-75
2021/05/30 06:30:39;;;;;;;6.25;3.75;;;;;;;14.87;66.86;95175.84;5064850;28;20048;-74
2021/05/30 06:33:07;;;;;;;6.45;3.40;;;;;;;14.97;66.79;95169.09;5065319;28;20119;-76
2021/05/30 06:35:36;;;;;;;9.00;4.53;;;;;;;15.04;66.46;95165.22;5064980;28;20036;-75
2021/05/30 06:38:03;;;;;;;8.60;4.07;;;;;;;15.22;66.15;95165.88;5046061;28;20525;-75
2021/05/30 06:40:29;;;;;;;8.65;3.60;;;;;;;15.27;65.51;95168.53;5064840;28;20044;-75
2021/05/30 06:42:56;;;;;;;6.47;3.72;;;;;;;15.40;64.97;95175.97;5064906;28;20047;-75
2021/05/30 06:45:23;;;;;;;11.75;4.78;;;;;;;15.37;65.48;95162.56;5066121;28;20036;-75
2021/05/30 06:47:51;;;;;;;5.32;3.95;;;;;;;15.55;65.76;95164.00;5064920;28;20032;-76
2021/05/30 06:50:18;;;;;;;10.13;3.45;;;;;;;15.61;64.36;95157.72;5064954;28;20432;-75
2021/05/30 06:52:44;;;;;;;5.80;3.55;;;;;;;15.78;64.27;95158.38;5066462;28;20048;-75
2021/05/30 06:55:13;;;;;;;5.97;3.75;;;;;;;15.95;64.15;95173.94;5065254;28;20410;-75
2021/05/30 06:57:40;;;;;;;5.18;3.80;;;;;;;15.78;63.87;95168.88;5064056;28;20422;-75
2021/05/30 07:00:08;;;;;;;7.78;3.92;;;;;;;15.78;64.31;95168.88;5061874;28;20040;-76
2021/05/30 07:02:35;;;;;;;6.80;3.75;;;;;;;16.00;63.06;95160.03;5065247;28;20045;-77
2021/05/30 07:05:02;;;;;;;6.40;3.40;;;;;;;16.13;63.55;95167.44;5064884;28;20071;-76
2021/05/30 07:07:29;;;;;;;9.85;3.78;;;;;;;16.33;62.37;95171.19;5045672;28;20039;-75
2021/05/30 07:09:55;;;;;;;5.63;3.67;;;;;;;16.45;61.79;95182.28;5065492;28;20048;-76
2021/05/30 07:12:22;;;;;;;6.72;3.22;;;;;;;16.39;60.65;95188.56;5070386;28;20051;-77
2021/05/30 07:14:49;;;;;;;14.45;3.72;;;;;;;16.15;58.51;95182.94;5050642;28;20047;-77
2021/05/30 07:17:16;;;;;;;7.07;3.17;;;;;;;15.97;59.60;95197.31;5069042;28;20040;-77
2021/05/30 07:19:47;;;;;;;7.40;3.30;;;;;;;16.09;59.52;95190.03;5070170;28;20041;-75
2021/05/30 07:22:14;;;;;;;6.85;2.53;;;;;;;16.05;59.50;95188.97;5067692;28;20067;-76
2021/05/30 07:24:41;;;;;;;7.03;2.75;;;;;;;16.07;59.18;95188.72;5068848;28;20048;-75
2021/05/30 07:27:08;;;;;;;2.97;2.65;;;;;;;16.00;58.28;95186.31;5069821;28;20043;-75
2021/05/30 07:29:35;;;;;;;5.30;3.03;;;;;;;16.20;58.24;95183.75;5068030;28;20044;-75
2021/05/30 07:32:02;;;;;;;6.90;2.67;;;;;;;16.25;58.35;95173.25;5068671;28;20049;-75
2021/05/30 07:34:29;;;;;;;5.93;2.60;;;;;;;16.17;58.05;95186.09;5068659;28;20044;-75
2021/05/30 07:36:55;;;;;;;8.30;3.45;;;;;;;16.08;58.42;95188.47;5069691;28;20045;-76
2021/05/30 07:39:22;;;;;;;3.40;3.00;;;;;;;16.13;58.99;95177.16;5072635;28;20040;-74
2021/05/30 07:41:49;;;;;;;6.57;2.80;;;;;;;16.18;58.04;95179.81;5071689;28;20514;-76
2021/05/30 07:44:16;;;;;;;6.20;2.90;;;;;;;16.16;58.02;95174.03;5075759;28;20040;-76
2021/05/30 07:46:43;;;;;;;5.05;2.75;;;;;;;16.19;58.34;95166.44;5071072;28;20040;-76
2021/05/30 07:49:10;;;;;;;2.78;2.33;;;;;;;16.38;57.33;95176.47;5067358;28;20075;-76
2021/05/30 07:51:36;;;;;;;4.40;2.55;;;;;;;16.25;57.74;95173.25;5070540;28;20044;-75
2021/05/30 07:54:04;;;;;;;7.03;2.75;;;;;;;16.30;56.61;95163.84;5066175;28;20044;-74
2021/05/30 07:56:31;;;;;;;4.45;2.58;;;;;;;16.46;55.95;95157.56;5067768;28;20044;-74
2021/05/30 07:58:58;;;;;;;6.28;2.97;;;;;;;16.72;55.76;95155.75;5053205;28;20111;-75
2021/05/30 08:01:24;;;;;;;4.82;2.97;;;;;;;16.94;54.74;95173.19;5066494;28;20040;-75
2021/05/30 08:03:51;;;;;;;3.55;2.47;;;;;;;16.92;55.50;95156.88;5068092;28;20044;-75
2021/05/30 08:06:18;;;;;;;5.93;3.22;;;;;;;17.05;54.44;95166.06;5067343;28;20047;-75
2021/05/30 08:08:45;;;;;;;7.13;3.65;;;;;;;17.12;54.39;95161.34;5068442;28;20033;-75
2021/05/30 08:11:12;;;;;;;6.38;2.30;;;;;;;17.03;54.11;95149.75;5072079;28;20040;-75
2021/05/30 08:13:38;;;;;;;3.90;2.67;;;;;;;17.24;53.77;95151.34;5067778;28;20501;-76
2021/05/30 08:16:05;;;;;;;7.18;3.03;;;;;;;17.46;54.03;95155.53;5067495;28;20056;-77
2021/05/30 08:18:32;;;;;;;5.25;2.13;;;;;;;17.74;53.95;95149.66;5070978;28;20478;-78
2021/05/30 08:21:00;;;;;;;7.55;2.58;;;;;;;18.02;53.21;95144.84;5071878;28;20040;-76
2021/05/30 08:23:27;;;;;;;9.55;2.75;;;;;;;18.29;51.55;95139.22;5074663;28;20040;-76
2021/05/30 08:25:54;;;;;;;5.85;2.10;;;;;;;18.42;50.40;95135.19;5069855;28;20049;-76
2021/05/30 08:28:21;;;;;;;7.43;2.70;;;;;;;18.54;50.54;95119.78;5072906;28;20040;-76
2021/05/30 08:30:48;;;;;;;4.90;2.65;;;;;;;18.89;50.05;95125.91;5075541;28;20043;-75
2021/05/30 08:33:15;;;;;;;5.25;2.35;;;;;;;19.22;47.88;95128.81;5069436;28;20040;-76
2021/05/30 08:35:41;;;;;;;4.53;2.20;;;;;;;19.25;47.95;95138.81;5073250;28;20044;-75
2021/05/30 08:38:20;;;;;;;3.75;2.40;;;;;;;19.29;47.70;95137.19;5049276;28;20041;-75
2021/05/30 08:40:56;;;;;;;2.75;1.75;;;;;;;19.36;46.68;95133.47;5066124;28;20094;-75
2021/05/30 08:43:24;;;;;;;4.63;2.40;;;;;;;19.09;47.29;95134.75;5066152;28;21035;-75
2021/05/30 08:45:51;;;;;;;10.40;2.47;;;;;;;19.22;48.75;95139.38;5052173;28;20056;-75
2021/05/30 08:48:17;;;;;;;5.85;1.98;;;;;;;19.54;47.10;95135.38;5048092;28;20033;-75
2021/05/30 08:51:01;;;;;;;5.38;1.88;;;;;;;19.67;44.34;95142.63;5068444;28;20036;-75
2021/05/30 08:53:38;;;;;;;4.65;2.08;;;;;;;19.65;45.43;95142.13;5066846;28;20044;-75
2021/05/30 08:56:07;;;;;;;3.95;2.03;;;;;;;20.00;45.31;95140.19;5067174;28;20410;-75
2021/05/30 08:58:38;;;;;;;3.45;2.28;;;;;;;20.27;43.90;95125.56;5067105;28;20052;-76
2021/05/30 09:01:20;;;;;;;5.18;2.30;;;;;;;20.20;44.65;95130.41;5067060;28;20420;-76
2021/05/30 09:03:55;;;;;;;2.90;2.33;;;;;;;20.38;45.33;95124.38;5069903;28;20132;-75
2021/05/30 09:06:23;;;;;;;8.40;2.17;;;;;;;20.55;44.66;95125.75;5066851;28;20041;-75
2021/05/30 09:08:52;;;;;;;3.08;1.92;;;;;;;20.48;42.92;95125.31;5067314;28;20047;-76
2021/05/30 09:11:39;;;;;;;2.10;1.75;;;;;;;20.70;43.64;95120.25;5066791;28;20115;-76
2021/05/30 09:14:12;;;;;;;4.10;2.28;;;;;;;20.90;42.75;95126.28;5067212;28;20048;-77
2021/05/30 09:17:10;;;;;;;4.70;2.08;;;;;;;20.58;43.01;95125.16;5048642;28;20525;-76
2021/05/30 09:19:43;;;;;;;2.67;2.10;;;;;;;20.86;43.05;95127.97;5068639;28;20093;-76
2021/05/30 09:22:25;;;;;;;2.97;2.33;;;;;;;20.67;41.94;95134.06;5067951;28;20040;-76
2021/05/30 09:24:52;;;;;;;3.03;1.65;;;;;;;20.92;41.86;95126.78;5065554;28;20052;-75
2021/05/30 09:27:41;;;;;;;4.90;1.90;;;;;;;20.97;41.75;95122.19;5067631;28;20040;-75
2021/05/30 09:30:26;;;;;;;4.93;1.90;;;;;;;20.72;41.78;95122.59;5047537;28;20045;-75
2021/05/30 09:32:55;;;;;;;4.97;2.05;;;;;;;20.90;42.60;95110.41;5065103;28;20040;-76
2021/05/30 09:35:44;;;;;;;2.40;2.08;;;;;;;21.00;40.98;95104.97;5065899;28;20048;-75
2021/05/30 09:38:19;;;;;;;2.13;1.92;;;;;;;21.11;40.84;95116.19;5065533;28;20422;-75
2021/05/30 09:40:50;;;;;;;5.93;2.10;;;;;;;21.07;42.00;95102.72;5069145;28;20044;-75
2021/05/30 09:43:25;;;;;;;5.95;2.95;;;;;;;21.17;42.92;95102.53;5069477;28;20509;-75
2021/05/30 09:46:04;;;;;;;4.38;2.20;;;;;;;21.42;40.51;95097.88;5067950;28;20472;-74
2021/05/30 09:48:33;;;;;;;4.68;1.77;;;;;;;21.38;40.93;95102.19;5065256;28;20509;-75
2021/05/30 09:51:21;;;;;;;4.78;2.28;;;;;;;21.42;41.63;95100.53;5065456;28;20424;-77
2021/05/30 09:53:48;;;;;;;6.55;1.85;;;;;;;21.62;40.14;95094.09;5066828;28;20402;-75
2021/05/30 09:56:29;;;;;;;3.40;2.10;;;;;;;21.75;40.00;95087.22;5048298;28;20066;-75
2021/05/30 09:58:57;;;;;;;2.58;1.73;;;;;;;21.99;39.34;95086.25;5067080;28;20044;-76
2021/05/30 10:01:25;;;;;;;3.35;1.85;;;;;;;22.12;39.44;95085.41;5064214;28;20048;-76
2021/05/30 10:03:56;;;;;;;6.03;2.00;;;;;;;22.06;38.12;95073.38;5048884;28;20040;-76
2021/05/30 10:06:23;;;;;;;2.38;1.70;;;;;;;22.46;38.40;95078.88;5065862;28;20421;-75
2021/05/30 10:08:51;;;;;;;3.80;2.33;;;;;;;22.78;38.88;95074.41;5065866;28;20064;-76
2021/05/30 10:11:19;;;;;;;5.28;1.85;;;;;;;22.76;39.22;95074.75;5065825;28;20109;-76
2021/05/30 10:13:46;;;;;;;4.00;1.80;;;;;;;23.07;36.41;95055.44;5048511;28;20051;-75
2021/05/30 10:16:17;;;;;;;2.13;1.60;;;;;;;23.35;36.32;95061.31;5043537;28;20529;-75
2021/05/30 10:18:49;;;;;;;6.30;2.08;;;;;;;23.70;34.93;95061.47;5064859;28;20040;-75
2021/05/30 10:21:19;;;;;;;4.45;1.83;;;;;;;23.66;35.69;95049.88;5066854;28;20047;-75
2021/05/30 10:23:50;;;;;;;4.53;1.80;;;;;;;23.76;35.06;95052.25;5066765;28;20045;-75
2021/05/30 10:26:22;;;;;;;4.03;1.60;;;;;;;23.92;35.39;95046.53;5064802;28;20048;-75
2021/05/30 10:29:08;;;;;;;1.90;1.70;;;;;;;24.03;34.49;95042.47;5064771;28;20041;-75
2021/05/30 10:31:37;;;;;;;2.38;1.95;;;;;;;24.17;33.79;95043.13;5063516;28;20041;-76
2021/05/30 10:34:09;;;;;;;5.70;1.90;;;;;;;24.20;35.65;95039.84;5068371;28;20133;-75
2021/05/30 10:36:54;;;;;;;2.60;1.50;;;;;;;24.52;34.12;95039.66;5067588;28;20043;-76
2021/05/30 10:39:32;;;;;;;4.70;1.67;;;;;;;24.76;33.07;95039.22;5066069;28;20395;-75
2021/05/30 10:42:27;;;;;;;4.03;1.77;;;;;;;24.76;32.39;95047.22;5045406;28;20534;-74
2021/05/30 10:45:01;;;;;;;3.67;1.70;;;;;;;25.04;32.40;95041.50;5066501;28;20072;-76
2021/05/30 10:47:43;;;;;;;4.40;1.48;;;;;;;24.56;33.73;95040.63;5065521;28;20045;-77
2021/05/30 10:50:13;;;;;;;9.43;1.65;;;;;;;24.91;32.15;95036.03;5064700;28;20043;-75
2021/05/30 10:52:49;;;;;;;3.95;1.60;;;;;;;25.01;32.75;95042.91;5070699;28;20115;-76
2021/05/30 10:55:18;;;;;;;5.20;1.60;;;;;;;24.66;33.68;95037.66;5065840;28;20041;-76
2021/05/30 10:57:49;;;;;;;3.08;1.80;;;;;;;24.67;32.19;95043.75;5065843;28;20044;-75
2021/05/30 11:00:20;;;;;;;4.65;1.88;;;;;;;24.43;32.22;95047.66;5064506;28;20605;-74
2021/05/30 11:03:06;;;;;;;5.32;2.15;;;;;;;24.05;33.00;95038.41;5065133;28;20933;-74
2021/05/30 11:05:47;;;;;;;4.43;1.80;;;;;;;23.91;32.92;95034.31;5064497;28;20060;-73
2021/05/30 11:08:51;;;;;;;2.83;1.90;;;;;;;24.02;33.45;95030.25;5062933;28;20048;-73
2021/05/30 11:11:29;;;;;;;;;;;;;;;23.80;33.46;95026.63;5014103;28;20052;-73
2021/05/30 11:13:58;;;;;;;2.80;1.50;;;;;;;23.99;33.02;95030.91;5065050;28;19928;-72
2021/05/30 11:16:28;;;;;;;3.22;1.67;;;;;;;24.00;32.33;95035.91;5065414;28;20059;-74
2021/05/30 11:19:04;;;;;;;7.05;1.50;;;;;;;23.88;32.73;95027.75;5047226;28;20044;-73
2021/05/30 11:21:41;;;;;;;1.75;1.30;;;;;;;24.12;33.32;95024.63;5066563;28;20043;-74
2021/05/30 11:24:12;;;;;;;5.20;1.55;;;;;;;23.80;33.38;95023.97;5063107;28;20055;-74
2021/05/30 11:26:39;;;;;;;4.93;1.75;;;;;;;23.83;32.44;95033.97;5065003;28;20057;-73
2021/05/30 11:29:06;;;;;;;3.22;2.00;;;;;;;24.08;31.93;95033.56;5065666;28;20052;-73
2021/05/30 11:31:33;;;;;;;4.20;1.58;;;;;;;24.10;32.08;95026.84;5064812;28;20425;-73
2021/05/30 11:34:06;;;;;;;2.50;1.38;;;;;;;24.15;32.21;95029.34;5065883;28;20041;-73
2021/05/30 11:36:35;;;;;;;2.30;1.73;;;;;;;24.17;31.88;95019.16;5046228;28;20098;-73
2021/05/30 11:39:12;;;;;;;1.83;1.52;;;;;;;24.06;31.66;95025.91;5066142;28;20039;-73
2021/05/30 11:41:52;;;;;;;1.65;1.55;;;;;;;23.98;32.01;95016.00;5065240;28;20060;-72
2021/05/30 11:44:25;;;;;;;3.63;1.80;;;;;;;23.62;33.48;95017.00;5048081;28;20110;-73